createdAt,value
2017-10-21T00:00:26.024Z,88.50
2017-10-21T00:02:57.754Z,88.30
2017-10-21T00:05:29.942Z,89.10
2017-10-21T00:07:59.321Z,89.30
2017-10-21T00:10:28.150Z,89.70
2017-10-21T00:15:41.273Z,89.90
2017-10-21T00:18:13.365Z,89.10
2017-10-21T00:20:40.897Z,89.30
2017-10-21T00:23:09.571Z,89.30
2017-10-21T00:25:37.148Z,88.80
2017-10-21T00:28:08.007Z,89.40
2017-10-21T00:30:35.544Z,88.90
2017-10-21T00:33:03.417Z,88.70
2017-10-21T00:35:35.314Z,88.90
2017-10-21T00:38:02.925Z,88.90
2017-10-21T00:43:06.907Z,89.40
2017-10-21T00:45:41.008Z,88.70
2017-10-21T00:48:12.378Z,89.20
2017-10-21T00:50:57.892Z,89.20
2017-10-21T00:53:35.918Z,89.60
2017-10-21T01:10:02.926Z,89.60
2017-10-21T01:12:35.374Z,90.00
2017-10-21T01:15:10.588Z,90.20
2017-10-21T01:17:49.335Z,90.10
2017-10-21T01:20:18.135Z,90.20
2017-10-21T01:22:45.776Z,90.20
2017-10-21T01:25:13.340Z,90.30
2017-10-21T01:27:41.922Z,90.50
2017-10-21T01:30:09.719Z,90.40
2017-10-21T01:32:37.401Z,90.40
2017-10-21T01:35:04.908Z,90.40
2017-10-21T01:37:32.499Z,90.50
2017-10-21T01:39:59.974Z,90.60
2017-10-21T01:42:27.479Z,90.50
2017-10-21T01:44:56.502Z,90.30
2017-10-21T01:47:23.991Z,90.30
2017-10-21T01:49:51.477Z,90.30
2017-10-21T01:52:19.006Z,90.10
2017-10-21T01:54:49.297Z,90.20
2017-10-21T01:57:16.835Z,90.50
2017-10-21T01:59:46.222Z,90.10
2017-10-21T02:02:13.692Z,89.80
2017-10-21T02:04:41.165Z,90.00
2017-10-21T02:07:08.631Z,90.20
2017-10-21T02:09:36.120Z,90.00
2017-10-21T02:12:03.583Z,89.50
2017-10-21T02:14:31.059Z,89.50
2017-10-21T02:16:58.537Z,89.80
2017-10-21T02:19:26.034Z,90.00
2017-10-21T02:21:53.512Z,89.50
2017-10-21T02:24:21.016Z,89.50
2017-10-21T02:26:48.517Z,89.70
2017-10-21T02:29:16.148Z,89.70
2017-10-21T02:31:43.698Z,89.80
2017-10-21T02:34:11.206Z,89.50
2017-10-21T02:36:39.745Z,89.30
2017-10-21T02:39:14.099Z,89.50
2017-10-21T02:45:15.888Z,89.60
2017-10-21T02:47:43.640Z,89.40
2017-10-21T02:50:11.249Z,89.90
2017-10-21T02:52:38.738Z,89.80
2017-10-21T02:55:06.213Z,89.60
2017-10-21T02:57:33.788Z,89.10
2017-10-21T03:00:01.271Z,88.80
2017-10-21T03:02:28.754Z,89.50
2017-10-21T03:04:56.267Z,89.30
2017-10-21T03:07:24.147Z,89.20
2017-10-21T03:09:51.785Z,89.30
2017-10-21T03:12:19.254Z,89.70
2017-10-21T03:14:46.746Z,89.30
2017-10-21T03:17:14.226Z,89.30
2017-10-21T03:19:41.729Z,89.30
2017-10-21T03:22:09.264Z,89.90
2017-10-21T03:24:36.904Z,89.80
2017-10-21T03:27:04.449Z,90.10
2017-10-21T03:29:31.929Z,89.60
2017-10-21T03:31:59.433Z,89.50
2017-10-21T03:34:26.948Z,88.90
2017-10-21T03:36:55.777Z,89.00
2017-10-21T03:39:28.196Z,89.30
2017-10-21T03:41:56.285Z,89.20
2017-10-21T03:47:10.603Z,88.90
2017-10-21T03:49:42.383Z,89.40
2017-10-21T03:52:09.981Z,88.70
2017-10-21T04:27:39.872Z,89.10
2017-10-21T04:37:56.945Z,88.80
2017-10-21T04:40:29.439Z,88.60
2017-10-21T05:16:14.651Z,88.60
2017-10-21T05:18:43.180Z,88.20
2017-10-21T05:21:17.036Z,88.40
2017-10-21T05:23:45.572Z,88.40
2017-10-21T05:26:14.054Z,88.30
2017-10-21T05:28:50.923Z,88.20
2017-10-21T05:31:18.715Z,88.50
2017-10-21T05:33:49.836Z,87.30
2017-10-21T05:36:21.719Z,87.80
2017-10-21T05:38:52.222Z,88.10
2017-10-21T05:41:31.859Z,87.80
2017-10-21T05:49:55.880Z,88.20
2017-10-21T06:04:13.766Z,87.70
2017-10-21T06:06:41.291Z,87.60
2017-10-21T06:09:08.835Z,88.00
2017-10-21T06:11:36.306Z,86.80
2017-10-21T06:14:03.852Z,86.70
2017-10-21T06:16:31.417Z,86.40
2017-10-21T06:18:58.910Z,86.00
2017-10-21T06:21:26.403Z,86.80
2017-10-21T06:23:53.971Z,86.10
2017-10-21T06:26:22.219Z,87.00
2017-10-21T06:28:51.003Z,87.00
2017-10-21T06:31:18.642Z,86.20
2017-10-21T06:33:46.986Z,86.70
2017-10-21T06:36:15.029Z,88.00
2017-10-21T06:38:43.032Z,88.20
2017-10-21T06:41:10.595Z,87.80
2017-10-21T06:43:38.090Z,87.80
2017-10-21T06:46:05.575Z,87.20
2017-10-21T06:48:33.093Z,87.70
2017-10-21T06:51:00.653Z,86.40
2017-10-21T06:53:28.137Z,86.00
2017-10-21T06:55:57.487Z,86.20
2017-10-21T06:58:24.996Z,86.70
2017-10-21T07:00:52.478Z,86.50
2017-10-21T07:03:19.955Z,84.80
2017-10-21T07:05:48.230Z,84.60
2017-10-21T07:08:15.695Z,84.60
2017-10-21T07:10:43.189Z,84.40
2017-10-21T07:13:10.726Z,85.10
2017-10-21T07:15:38.250Z,84.80
2017-10-21T07:18:06.549Z,85.70
2017-10-21T07:20:34.156Z,84.70
2017-10-21T07:23:01.743Z,85.00
2017-10-21T07:25:34.175Z,84.90
2017-10-21T07:34:12.765Z,85.70
2017-10-21T07:39:13.273Z,85.70
2017-10-21T07:41:40.838Z,86.00
2017-10-21T07:44:09.160Z,85.60
2017-10-21T07:46:37.765Z,85.10
2017-10-21T07:49:07.335Z,85.50
2017-10-21T07:51:45.000Z,84.90
2017-10-21T07:54:23.233Z,85.10
2017-10-21T08:32:02.336Z,85.70
2017-10-21T08:42:21.953Z,83.80
2017-10-21T11:51:27.126Z,79.10
2017-10-21T11:53:56.269Z,79.00
2017-10-21T11:56:24.145Z,78.00
2017-10-21T12:01:54.991Z,78.60
2017-10-21T12:04:27.365Z,78.00
2017-10-21T12:06:59.249Z,78.60
2017-10-21T12:09:30.195Z,78.30
2017-10-21T12:12:17.909Z,77.30
2017-10-21T12:14:45.668Z,77.90
2017-10-21T12:17:13.477Z,78.30
2017-10-21T12:19:42.202Z,77.30
2017-10-21T12:22:09.953Z,77.50
2017-10-21T12:24:40.238Z,77.60
2017-10-21T12:27:09.719Z,76.70
2017-10-21T12:29:40.995Z,77.40
2017-10-21T12:32:11.545Z,77.90
2017-10-21T12:34:39.348Z,77.40
2017-10-21T12:37:12.062Z,77.80
2017-10-21T12:39:41.576Z,78.10
2017-10-21T12:42:09.227Z,78.30
2017-10-21T12:47:29.243Z,78.50
2017-10-21T12:50:10.390Z,78.10
2017-10-21T12:55:23.208Z,78.30
2017-10-21T13:04:13.771Z,78.40
2017-10-21T13:06:51.562Z,78.70
2017-10-21T13:09:27.094Z,78.40
2017-10-21T13:11:56.741Z,78.30
2017-10-21T13:14:28.769Z,78.10
2017-10-21T13:16:56.535Z,78.00
2017-10-21T13:19:25.371Z,77.20
2017-10-21T13:21:58.660Z,77.30
2017-10-21T13:24:37.070Z,78.20
2017-10-21T13:27:04.665Z,77.30
2017-10-21T13:29:34.659Z,77.80
2017-10-21T13:32:04.388Z,78.40
2017-10-21T13:34:32.078Z,79.10
2017-10-21T13:37:02.650Z,79.20
2017-10-21T13:42:29.274Z,79.50
2017-10-21T13:44:59.629Z,79.60
2017-10-21T13:47:33.754Z,79.70
2017-10-21T13:57:12.414Z,81.50
2017-10-21T13:59:41.303Z,81.20
2017-10-21T14:02:16.471Z,80.30
2017-10-21T14:04:45.827Z,80.50
2017-10-21T14:07:15.858Z,80.00
2017-10-21T14:09:48.048Z,80.10
2017-10-21T14:12:17.712Z,79.60
2017-10-21T14:14:49.000Z,79.50
2017-10-21T14:17:30.531Z,78.60
2017-10-21T14:20:09.044Z,78.60
2017-10-21T14:22:59.214Z,78.80
2017-10-21T14:28:12.385Z,79.10
2017-10-21T14:30:45.595Z,79.00
2017-10-21T14:33:13.310Z,79.20
2017-10-21T14:35:55.633Z,79.10
2017-10-21T14:38:30.333Z,79.60
2017-10-21T14:41:18.546Z,80.10
2017-10-21T14:43:54.668Z,80.10
2017-10-21T14:49:27.659Z,80.10
2017-10-21T14:55:37.907Z,80.90
2017-10-21T14:58:25.899Z,81.20
2017-10-21T15:14:14.648Z,81.80
2017-10-21T15:20:56.435Z,82.60
2017-10-21T15:32:04.782Z,85.80
2017-10-21T15:41:13.617Z,86.30
2017-10-21T15:44:03.349Z,86.60
2017-10-21T15:46:41.108Z,86.70
2017-10-21T15:55:14.583Z,87.80
2017-10-21T16:03:30.422Z,88.50
2017-10-21T16:06:05.654Z,88.50
2017-10-21T16:08:34.138Z,88.70
2017-10-21T16:11:04.072Z,88.90
2017-10-21T16:13:45.427Z,89.10
2017-10-21T16:16:13.950Z,89.00
2017-10-21T16:21:21.740Z,89.00
2017-10-21T17:42:18.032Z,91.50
2017-10-21T17:53:54.829Z,91.30
2017-10-21T17:56:22.385Z,91.20
2017-10-21T18:07:41.486Z,91.10
2017-10-21T18:10:10.158Z,91.10
2017-10-21T18:36:57.035Z,91.40
2017-10-21T18:39:24.989Z,91.50
2017-10-21T18:41:52.584Z,91.50
2017-10-21T18:44:20.223Z,91.40
2017-10-21T18:46:50.961Z,91.40
2017-10-21T18:49:46.660Z,91.40
2017-10-21T18:52:17.335Z,91.30
2017-10-21T18:54:45.204Z,91.40
2017-10-21T18:57:12.926Z,91.40
2017-10-21T18:59:42.973Z,91.40
2017-10-21T19:02:11.135Z,91.40
2017-10-21T19:04:42.532Z,91.30
2017-10-21T19:07:11.460Z,91.30
2017-10-21T19:09:38.990Z,91.30
2017-10-21T19:12:09.219Z,91.40
2017-10-21T19:14:38.677Z,91.40
2017-10-21T19:19:57.817Z,91.40
2017-10-21T19:22:29.918Z,91.40
2017-10-21T19:25:20.133Z,91.40
2017-10-21T19:30:34.360Z,91.40
2017-10-21T19:33:01.869Z,91.40
2017-10-21T19:38:36.146Z,91.30
2017-10-21T19:41:07.381Z,91.30
2017-10-21T19:43:38.134Z,91.30
2017-10-21T19:46:06.604Z,91.40
2017-10-21T19:48:34.704Z,91.40
2017-10-21T19:51:06.899Z,91.20
2017-10-21T19:53:36.480Z,91.30
2017-10-21T19:56:05.520Z,91.20
2017-10-21T19:58:32.996Z,91.20
2017-10-21T20:01:01.001Z,91.20
2017-10-21T20:03:28.517Z,91.20
2017-10-21T20:05:56.902Z,91.30
2017-10-21T20:08:33.234Z,91.30
2017-10-21T20:13:43.276Z,91.30
2017-10-21T20:16:11.975Z,91.20
2017-10-21T20:18:39.829Z,91.20
2017-10-21T20:24:09.878Z,91.30
2017-10-21T20:26:37.640Z,91.30
2017-10-21T20:29:05.392Z,91.30
2017-10-21T20:31:32.902Z,91.20
2017-10-21T20:34:00.486Z,91.30
2017-10-21T20:36:28.997Z,91.20
2017-10-21T20:38:56.834Z,91.10
2017-10-21T20:41:25.196Z,91.20
2017-10-21T20:43:52.752Z,91.50
2017-10-21T20:46:20.775Z,91.10
2017-10-21T20:48:48.694Z,91.20
2017-10-21T20:51:17.197Z,91.10
2017-10-21T20:53:45.175Z,91.10
2017-10-21T20:56:12.748Z,91.10
2017-10-21T20:58:40.717Z,91.10
2017-10-21T21:01:09.104Z,91.10
2017-10-21T21:07:11.848Z,91.30
2017-10-21T21:12:33.904Z,91.40
2017-10-21T21:15:07.006Z,91.20
2017-10-21T21:17:40.343Z,91.20
2017-10-21T21:20:09.301Z,91.20
2017-10-21T21:22:42.393Z,91.20
2017-10-21T21:25:11.420Z,91.30
2017-10-21T21:27:41.063Z,91.40
2017-10-21T21:30:11.933Z,91.40
2017-10-21T21:32:42.562Z,91.40
2017-10-21T21:35:10.193Z,91.50
2017-10-21T21:37:38.787Z,91.70
2017-10-21T21:40:12.885Z,91.80
2017-10-21T21:42:40.539Z,91.70
2017-10-21T21:45:08.016Z,91.70
2017-10-21T21:47:35.696Z,91.70
2017-10-21T21:50:03.224Z,91.70
2017-10-21T21:52:30.815Z,91.60
2017-10-21T21:54:58.376Z,91.70
2017-10-21T21:57:25.863Z,91.80
2017-10-21T21:59:53.412Z,91.80
2017-10-21T22:02:22.746Z,91.80
2017-10-21T22:04:50.300Z,91.70
2017-10-21T22:07:17.776Z,91.80
2017-10-21T22:09:45.268Z,91.80
2017-10-21T22:12:12.793Z,91.90
2017-10-21T22:14:40.367Z,91.90
2017-10-21T22:17:07.868Z,91.70
2017-10-21T22:19:35.426Z,91.30
2017-10-21T22:22:16.013Z,91.00
2017-10-21T22:24:43.538Z,91.00
2017-10-21T22:27:11.082Z,91.10
2017-10-21T22:29:38.623Z,91.10
2017-10-21T22:32:07.580Z,91.20
2017-10-21T22:34:35.113Z,91.30
2017-10-21T22:37:02.679Z,91.40
2017-10-21T22:39:30.295Z,91.40
2017-10-21T22:41:57.798Z,91.40
2017-10-21T22:44:25.297Z,91.80
2017-10-21T22:46:52.784Z,91.50
2017-10-21T22:49:35.689Z,91.70
2017-10-21T22:52:03.187Z,91.80
2017-10-21T22:54:31.500Z,91.80
2017-10-21T22:56:58.994Z,91.70
2017-10-21T22:59:26.486Z,91.80
2017-10-21T23:01:54.026Z,91.80
2017-10-21T23:04:21.998Z,91.80
2017-10-21T23:06:49.522Z,91.90
2017-10-21T23:09:18.730Z,91.90
2017-10-21T23:11:46.300Z,92.00
2017-10-21T23:14:19.854Z,91.90
2017-10-21T23:16:47.372Z,91.90
2017-10-21T23:19:14.924Z,92.00
2017-10-21T23:21:42.403Z,92.10
2017-10-21T23:24:09.924Z,92.10
2017-10-21T23:26:37.428Z,92.00
2017-10-21T23:29:05.870Z,92.00
2017-10-21T23:31:35.555Z,92.10
2017-10-21T23:34:03.039Z,92.10
2017-10-21T23:36:31.287Z,92.10
2017-10-21T23:38:58.769Z,92.00
2017-10-21T23:41:26.994Z,92.10
2017-10-21T23:43:54.470Z,92.10
2017-10-21T23:46:21.968Z,92.20
2017-10-21T23:48:50.227Z,92.30
2017-10-21T23:51:17.708Z,92.30
2017-10-21T23:53:45.196Z,92.40
2017-10-21T23:56:12.696Z,92.40
2017-10-21T23:58:40.169Z,92.40
